Time;durP1;ratioP1;P1;durP2;ratioP2;P2;SDS_P1;SDS_P2;PMS_P1;PMS_P2;Temp;Humidity;BMP_temperature;BMP_pressure;BME280_temperature;BME280_humidity;BME280_pressure;Samples;Min_cycle;Max_cycle;Signal;HPM_P1;HPM_P2
2023/12/27 00:01:38;;;;;;;78.32;54.47;;;9.20;97.90;;;;;;5055956;28;20025;-64
2023/12/27 00:04:04;;;;;;;76.78;56.72;;;9.20;98.50;;;;;;5055985;28;20028;-67
2023/12/27 00:06:30;;;;;;;68.97;49.08;;;9.00;99.10;;;;;;5055828;28;20029;-67
2023/12/27 00:08:55;;;;;;;60.13;46.08;;;8.90;99.00;;;;;;5055807;28;20499;-69
2023/12/27 00:11:21;;;;;;;65.40;48.38;;;9.00;99.10;;;;;;5055892;28;20104;-70
2023/12/27 00:13:47;;;;;;;55.08;40.88;;;9.00;98.80;;;;;;5055792;28;20013;-68
2023/12/27 00:16:12;;;;;;;48.13;37.30;;;9.10;98.40;;;;;;5055279;28;20100;-64
2023/12/27 00:18:38;;;;;;;59.45;44.47;;;9.10;97.60;;;;;;5054431;28;20029;-66
2023/12/27 00:21:04;;;;;;;51.70;39.38;;;9.00;97.20;;;;;;5055557;28;20021;-69
2023/12/27 00:23:29;;;;;;;52.45;39.72;;;8.90;97.80;;;;;;5055631;28;20025;-70
2023/12/27 00:25:56;;;;;;;42.95;34.63;;;8.90;98.00;;;;;;5055681;28;20018;-62
2023/12/27 00:28:22;;;;;;;42.22;33.85;;;8.90;98.00;;;;;;5055635;28;20025;-68
2023/12/27 00:30:49;;;;;;;46.30;34.65;;;8.90;97.80;;;;;;5054355;28;20028;-69
2023/12/27 00:33:18;;;;;;;42.75;32.55;;;8.90;97.60;;;;;;5055405;28;20044;-63
2023/12/27 00:35:44;;;;;;;41.53;30.45;;;8.90;97.70;;;;;;5055490;28;20029;-62
2023/12/27 00:38:10;;;;;;;38.35;30.17;;;8.90;97.40;;;;;;5055611;28;20055;-70
2023/12/27 00:40:36;;;;;;;32.92;26.33;;;8.90;97.00;;;;;;5055220;28;20161;-63
2023/12/27 00:43:02;;;;;;;32.80;26.33;;;8.80;97.20;;;;;;5055402;28;20017;-68
2023/12/27 00:45:28;;;;;;;33.78;26.55;;;8.80;97.70;;;;;;5055260;28;20022;-68
2023/12/27 00:47:53;;;;;;;32.55;27.13;;;8.80;96.90;;;;;;5055065;28;20029;-63
2023/12/27 00:50:19;;;;;;;31.23;24.38;;;8.80;97.70;;;;;;5054939;28;20029;-62
2023/12/27 00:52:45;;;;;;;34.22;25.20;;;8.70;98.50;;;;;;5055071;28;20093;-68
2023/12/27 00:55:11;;;;;;;30.45;23.95;;;8.60;99.40;;;;;;5055099;28;20120;-65
2023/12/27 00:57:36;;;;;;;32.20;24.83;;;8.60;99.60;;;;;;5054878;28;20379;-61
2023/12/27 01:00:03;;;;;;;30.90;23.63;;;8.60;99.10;;;;;;5055113;28;20113;-60
2023/12/27 01:02:29;;;;;;;50.08;39.05;;;8.60;98.60;;;;;;5054880;28;20375;-70
2023/12/27 01:04:55;;;;;;;38.25;28.95;;;8.60;98.90;;;;;;5054794;28;20044;-66
2023/12/27 01:07:22;;;;;;;43.17;32.80;;;8.60;98.80;;;;;;5055087;28;20044;-63
2023/12/27 01:09:48;;;;;;;41.60;31.80;;;8.60;99.00;;;;;;5054838;28;20025;-69
2023/12/27 01:12:14;;;;;;;77.50;58.92;;;8.60;98.70;;;;;;5053480;28;20104;-63
2023/12/27 01:14:40;;;;;;;82.18;62.92;;;8.60;99.10;;;;;;5054719;28;20021;-64
2023/12/27 01:17:07;;;;;;;56.75;45.95;;;8.40;99.90;;;;;;5054570;28;20025;-63
2023/12/27 01:19:32;;;;;;;52.83;43.28;;;8.40;99.90;;;;;;5054441;28;20088;-66
2023/12/27 01:21:58;;;;;;;63.35;48.60;;;8.40;99.60;;;;;;5054443;28;20031;-63
2023/12/27 01:24:24;;;;;;;60.88;48.28;;;8.40;99.30;;;;;;5054500;28;20032;-67
2023/12/27 01:26:50;;;;;;;50.60;40.05;;;8.40;99.10;;;;;;5053763;28;20075;-70
2023/12/27 01:29:15;;;;;;;50.38;38.42;;;8.40;98.90;;;;;;5054256;28;20025;-66
2023/12/27 01:31:41;;;;;;;44.90;35.08;;;8.40;98.40;;;;;;5054366;28;20021;-65
2023/12/27 01:34:07;;;;;;;49.50;37.10;;;8.40;98.50;;;;;;5054090;28;20467;-67
2023/12/27 01:36:33;;;;;;;43.20;34.22;;;8.30;98.80;;;;;;5054196;28;20039;-65
2023/12/27 01:38:58;;;;;;;44.03;36.28;;;8.30;98.80;;;;;;5054243;28;20025;-67
2023/12/27 01:41:24;;;;;;;64.95;47.67;;;8.30;97.90;;;;;;5054148;28;20021;-65
2023/12/27 01:43:50;;;;;;;45.90;35.75;;;8.10;98.90;;;;;;5054286;28;20475;-66
2023/12/27 01:46:16;;;;;;;53.53;41.58;;;8.00;99.90;;;;;;5054100;28;20071;-68
2023/12/27 01:48:43;;;;;;;73.72;53.28;;;8.00;99.90;;;;;;5053808;28;20022;-67
2023/12/27 01:51:12;;;;;;;48.33;37.58;;;8.00;99.90;;;;;;5053852;28;20021;-65
2023/12/27 01:53:38;;;;;;;50.67;38.90;;;7.80;99.90;;;;;;5053942;28;20021;-64
2023/12/27 01:56:04;;;;;;;53.78;41.50;;;7.90;99.90;;;;;;5053990;28;20104;-65
2023/12/27 01:58:30;;;;;;;45.88;35.95;;;8.00;99.90;;;;;;5053494;28;20140;-68
2023/12/27 02:00:57;;;;;;;45.75;36.58;;;8.00;99.80;;;;;;5053786;28;20036;-66
2023/12/27 02:03:25;;;;;;;44.03;35.20;;;8.00;99.30;;;;;;5053665;28;20016;-64
2023/12/27 02:05:54;;;;;;;51.00;41.22;;;8.00;98.70;;;;;;5053616;28;20078;-64
2023/12/27 02:08:21;;;;;;;42.65;33.72;;;8.00;98.30;;;;;;5053743;28;20020;-63
2023/12/27 02:10:46;;;;;;;38.97;30.80;;;7.90;99.20;;;;;;5053746;28;20021;-66
2023/12/27 02:13:13;;;;;;;35.78;27.70;;;7.70;99.70;;;;;;5053538;28;20028;-63
2023/12/27 02:15:38;;;;;;;27.90;22.25;;;7.70;99.80;;;;;;5052336;28;20386;-63
2023/12/27 02:18:05;;;;;;;26.13;21.67;;;7.80;99.60;;;;;;5053633;28;20033;-64
2023/12/27 02:20:32;;;;;;;26.63;20.60;;;7.80;98.70;;;;;;5052138;28;20369;-68
2023/12/27 02:23:01;;;;;;;24.15;20.02;;;7.80;98.90;;;;;;5053733;28;20360;-67
2023/12/27 02:25:27;;;;;;;28.95;21.63;;;7.80;99.50;;;;;;5053480;28;20044;-62
2023/12/27 02:27:53;;;;;;;27.15;21.50;;;7.80;98.80;;;;;;5053278;28;20025;-67
2023/12/27 02:30:20;;;;;;;27.45;21.50;;;7.80;98.00;;;;;;5052122;28;20029;-64
2023/12/27 02:32:46;;;;;;;30.45;23.05;;;7.80;98.70;;;;;;5053460;28;20029;-65
2023/12/27 02:35:12;;;;;;;28.25;22.25;;;7.70;99.30;;;;;;5053236;28;20028;-65
2023/12/27 02:37:38;;;;;;;35.97;26.98;;;7.70;99.30;;;;;;5053272;28;20033;-66
2023/12/27 02:40:04;;;;;;;34.63;26.90;;;7.70;99.20;;;;;;5053095;28;20048;-60
2023/12/27 02:42:30;;;;;;;31.58;24.65;;;7.60;99.50;;;;;;5053171;28;20399;-67
2023/12/27 02:44:56;;;;;;;42.35;31.33;;;7.60;99.50;;;;;;5053181;28;20031;-70
2023/12/27 02:47:21;;;;;;;29.77;23.27;;;7.60;99.10;;;;;;5053106;28;20025;-70
2023/12/27 02:49:47;;;;;;;28.25;22.52;;;7.60;99.40;;;;;;5053135;28;20021;-67
2023/12/27 02:52:13;;;;;;;28.33;21.98;;;7.60;99.20;;;;;;5052960;28;20033;-63
2023/12/27 02:54:38;;;;;;;23.50;19.55;;;7.60;98.90;;;;;;5053141;28;20028;-68
2023/12/27 02:57:04;;;;;;;22.25;19.10;;;7.60;98.10;;;;;;5053067;28;20040;-72
2023/12/27 02:59:30;;;;;;;21.20;16.83;;;7.50;98.10;;;;;;5052706;28;20102;-68
2023/12/27 03:01:55;;;;;;;19.17;15.43;;;7.50;98.30;;;;;;5052864;28;20025;-64
2023/12/27 03:04:21;;;;;;;19.17;16.50;;;7.60;97.90;;;;;;5053108;28;20061;-61
2023/12/27 03:06:47;;;;;;;18.08;14.95;;;7.60;97.50;;;;;;5051480;28;20020;-67
2023/12/27 03:09:13;;;;;;;19.92;15.10;;;7.50;97.50;;;;;;5051972;28;20083;-64
2023/12/27 03:11:38;;;;;;;22.67;18.02;;;7.50;97.70;;;;;;5052866;28;20053;-66
2023/12/27 03:14:04;;;;;;;19.35;16.20;;;7.50;98.50;;;;;;5052867;28;20024;-65
2023/12/27 03:16:30;;;;;;;19.70;16.20;;;7.30;99.30;;;;;;5052611;28;20033;-60
2023/12/27 03:18:57;;;;;;;24.33;19.38;;;7.30;99.40;;;;;;5052950;28;20017;-64
2023/12/27 03:21:22;;;;;;;35.10;26.55;;;7.40;99.70;;;;;;5052805;28;20017;-66
2023/12/27 03:23:48;;;;;;;32.78;25.77;;;7.20;99.90;;;;;;5052694;28;20463;-71
2023/12/27 03:26:14;;;;;;;26.65;21.30;;;7.20;99.90;;;;;;5052916;28;20099;-58
2023/12/27 03:28:40;;;;;;;26.23;20.05;;;7.10;99.90;;;;;;5052970;28;20051;-65
2023/12/27 03:31:06;;;;;;;30.95;22.42;;;7.20;99.90;;;;;;5052479;28;20017;-65
2023/12/27 03:33:32;;;;;;;24.38;19.50;;;7.30;99.50;;;;;;5052839;28;20021;-62
2023/12/27 03:35:58;;;;;;;27.17;21.45;;;7.30;99.60;;;;;;5052746;28;20020;-65
2023/12/27 03:38:24;;;;;;;34.28;27.88;;;7.30;99.70;;;;;;5052516;28;20475;-64
2023/12/27 03:40:50;;;;;;;37.22;29.88;;;7.20;99.90;;;;;;5052657;28;20028;-66
2023/12/27 03:43:16;;;;;;;39.83;31.00;;;7.00;99.90;;;;;;5052876;28;20025;-69
2023/12/27 03:45:41;;;;;;;52.58;41.15;;;6.80;99.90;;;;;;5052602;28;20028;-65
2023/12/27 03:48:07;;;;;;;49.33;37.33;;;6.80;99.90;;;;;;5052658;28;20028;-67
2023/12/27 03:50:33;;;;;;;35.80;27.88;;;6.80;99.90;;;;;;5053506;28;20479;-66
2023/12/27 03:52:59;;;;;;;35.72;28.10;;;6.80;99.90;;;;;;5056307;28;20052;-68
2023/12/27 03:55:25;;;;;;;32.85;27.15;;;6.80;99.90;;;;;;5056235;28;20029;-63
2023/12/27 03:57:52;;;;;;;31.40;24.40;;;6.90;99.90;;;;;;5055883;28;20080;-69
2023/12/27 04:00:18;;;;;;;30.88;24.48;;;6.90;99.90;;;;;;5056226;28;20021;-70
2023/12/27 04:02:44;;;;;;;27.77;22.55;;;6.90;99.90;;;;;;5055971;28;20360;-66
2023/12/27 04:05:09;;;;;;;23.98;19.98;;;6.90;99.90;;;;;;5056038;28;20028;-65
2023/12/27 04:07:35;;;;;;;21.42;17.85;;;7.00;99.60;;;;;;5056065;28;20029;-64
2023/12/27 04:10:01;;;;;;;21.77;17.20;;;7.00;99.90;;;;;;5055863;28;20100;-65
2023/12/27 04:12:27;;;;;;;27.00;19.23;;;7.00;99.90;;;;;;5055732;28;20032;-62
2023/12/27 04:14:53;;;;;;;29.25;21.83;;;7.10;99.60;;;;;;5056048;28;20463;-63
2023/12/27 04:17:18;;;;;;;39.20;30.33;;;7.00;99.40;;;;;;5055588;28;20043;-70
2023/12/27 04:19:44;;;;;;;34.60;27.58;;;6.90;99.90;;;;;;5054492;28;20028;-66
2023/12/27 04:22:10;;;;;;;37.10;27.50;;;6.80;99.90;;;;;;5055678;28;20017;-62
2023/12/27 04:24:35;;;;;;;35.22;27.25;;;6.80;99.90;;;;;;5055560;28;20433;-63
2023/12/27 04:27:02;;;;;;;52.67;37.25;;;6.80;99.90;;;;;;5055623;28;20032;-65
2023/12/27 04:29:28;;;;;;;66.22;47.47;;;6.80;99.90;;;;;;5055398;28;20056;-65
2023/12/27 04:31:53;;;;;;;40.13;33.25;;;6.80;99.90;;;;;;5055566;28;20052;-66
2023/12/27 04:34:19;;;;;;;34.15;27.73;;;6.70;99.90;;;;;;5055547;28;20021;-67
2023/12/27 04:36:45;;;;;;;48.30;35.08;;;6.70;99.90;;;;;;5055340;28;20064;-65
2023/12/27 04:39:10;;;;;;;37.53;29.73;;;6.60;99.90;;;;;;5055352;28;20025;-67
2023/12/27 04:41:36;;;;;;;34.22;28.30;;;6.50;99.90;;;;;;5053860;28;20029;-70
2023/12/27 04:44:02;;;;;;;32.35;25.45;;;6.50;99.90;;;;;;5055224;28;20063;-63
2023/12/27 04:46:28;;;;;;;26.77;22.85;;;6.50;99.90;;;;;;5055321;28;20014;-59
2023/12/27 04:48:53;;;;;;;26.35;21.30;;;6.60;99.70;;;;;;5055128;28;20021;-64
2023/12/27 04:51:20;;;;;;;22.05;18.45;;;6.60;99.90;;;;;;5055284;28;20471;-65
2023/12/27 04:53:46;;;;;;;19.73;16.95;;;6.70;99.90;;;;;;5055189;28;20025;-67
2023/12/27 04:56:11;;;;;;;21.70;16.58;;;6.70;99.80;;;;;;5054782;28;20036;-66
2023/12/27 04:58:37;;;;;;;19.40;16.08;;;6.70;99.40;;;;;;5053553;28;20048;-66
2023/12/27 05:01:04;;;;;;;18.88;15.45;;;6.70;99.30;;;;;;5054881;28;20032;-68
2023/12/27 05:03:34;;;;;;;16.52;13.80;;;6.70;99.40;;;;;;5053850;28;20024;-61
2023/12/27 05:06:00;;;;;;;16.52;14.10;;;6.70;99.60;;;;;;5054931;28;20021;-67
2023/12/27 05:08:25;;;;;;;20.75;16.00;;;6.60;99.30;;;;;;5053672;28;20029;-65
2023/12/27 05:10:51;;;;;;;35.08;27.38;;;6.60;99.20;;;;;;5054598;28;20021;-65
2023/12/27 05:13:17;;;;;;;67.82;48.88;;;6.60;99.90;;;;;;5054859;28;20033;-66
2023/12/27 05:15:42;;;;;;;45.63;35.78;;;6.40;99.90;;;;;;5054790;28;20032;-65
2023/12/27 05:18:08;;;;;;;45.08;35.35;;;6.30;99.90;;;;;;5054580;28;20146;-64
2023/12/27 05:20:33;;;;;;;48.83;38.42;;;6.30;99.90;;;;;;5054513;28;20024;-67
2023/12/27 05:22:59;;;;;;;33.60;28.67;;;6.40;99.90;;;;;;5054506;28;20028;-65
2023/12/27 05:25:25;;;;;;;44.55;34.00;;;6.40;99.90;;;;;;5054390;28;20541;-62
2023/12/27 05:27:50;;;;;;;39.97;32.10;;;6.40;99.90;;;;;;5053156;28;20426;-70
2023/12/27 05:30:16;;;;;;;41.97;33.50;;;6.50;99.90;;;;;;5054452;28;20035;-69
2023/12/27 05:32:42;;;;;;;58.92;44.90;;;6.50;99.90;;;;;;5053157;28;20029;-62
2023/12/27 05:35:09;;;;;;;76.13;58.47;;;6.30;99.90;;;;;;5054146;28;20032;-63
2023/12/27 05:37:35;;;;;;;51.55;41.88;;;6.20;99.90;;;;;;5054264;28;20120;-65
2023/12/27 05:40:00;;;;;;;48.63;40.03;;;6.10;99.90;;;;;;5052964;28;20112;-64
2023/12/27 05:42:26;;;;;;;47.45;38.38;;;6.20;99.90;;;;;;5054049;28;20028;-65
2023/12/27 05:44:52;;;;;;;47.70;39.17;;;6.30;99.90;;;;;;5054274;28;20518;-67
2023/12/27 05:47:18;;;;;;;45.17;36.92;;;6.40;99.90;;;;;;5053982;28;20025;-66
2023/12/27 05:49:44;;;;;;;37.67;31.08;;;6.50;99.90;;;;;;5054011;28;20378;-66
2023/12/27 05:52:10;;;;;;;33.05;27.33;;;6.50;99.90;;;;;;5052969;28;20079;-67
2023/12/27 05:54:36;;;;;;;28.85;24.67;;;6.50;99.90;;;;;;5053901;28;20043;-68
2023/12/27 05:57:03;;;;;;;26.27;22.45;;;6.40;99.90;;;;;;5052652;28;20033;-69
2023/12/27 05:59:29;;;;;;;24.50;20.67;;;6.50;99.90;;;;;;5053709;28;20101;-64
2023/12/27 06:01:55;;;;;;;24.58;20.35;;;6.60;99.90;;;;;;5047269;28;20037;-64
2023/12/27 06:04:21;;;;;;;24.35;19.50;;;6.60;99.90;;;;;;5033821;28;20064;-63
2023/12/27 06:06:49;;;;;;;20.20;18.00;;;6.70;99.90;;;;;;5039342;28;20372;-66
2023/12/27 06:09:18;;;;;;;20.23;16.40;;;6.70;99.90;;;;;;5041477;28;20387;-66
2023/12/27 06:11:44;;;;;;;23.08;18.13;;;6.70;99.80;;;;;;5037759;28;20037;-61
2023/12/27 06:14:10;;;;;;;20.95;16.30;;;6.80;99.90;;;;;;5033985;28;20625;-63
2023/12/27 06:16:36;;;;;;;18.42;15.75;;;6.80;99.90;;;;;;5033466;28;20045;-60
2023/12/27 06:19:02;;;;;;;26.98;19.55;;;6.90;99.90;;;;;;5033406;28;20103;-62
2023/12/27 06:21:28;;;;;;;20.85;16.92;;;6.90;99.90;;;;;;5033604;28;20074;-65
2023/12/27 06:23:54;;;;;;;26.30;18.63;;;7.00;99.90;;;;;;5033192;28;20025;-63
2023/12/27 06:26:20;;;;;;;31.40;24.02;;;7.10;99.90;;;;;;5033602;28;20022;-68
2023/12/27 06:28:46;;;;;;;31.10;23.38;;;7.10;99.90;;;;;;5032782;28;20022;-64
2023/12/27 06:31:12;;;;;;;27.15;21.30;;;7.10;99.90;;;;;;5032929;28;20468;-65
2023/12/27 06:33:38;;;;;;;28.90;21.60;;;7.10;99.90;;;;;;5032350;28;20531;-60
2023/12/27 06:36:07;;;;;;;22.38;18.05;;;7.10;99.90;;;;;;5031268;28;20026;-66
2023/12/27 06:38:33;;;;;;;27.67;21.73;;;7.20;99.90;;;;;;5031823;28;20030;-62
2023/12/27 06:41:02;;;;;;;30.77;22.90;;;7.20;99.90;;;;;;5052396;28;20025;-66
2023/12/27 06:43:29;;;;;;;41.70;30.13;;;7.20;99.90;;;;;;5053141;28;20035;-63
2023/12/27 06:45:54;;;;;;;28.15;23.13;;;7.30;99.90;;;;;;5052485;28;20498;-67
2023/12/27 06:48:20;;;;;;;25.05;20.83;;;7.30;99.90;;;;;;5052122;28;20047;-67
2023/12/27 06:50:48;;;;;;;26.20;21.55;;;7.40;99.90;;;;;;5050905;28;20491;-62
2023/12/27 06:53:14;;;;;;;32.95;26.13;;;7.50;99.90;;;;;;5052002;28;20048;-63
2023/12/27 06:55:40;;;;;;;22.88;19.52;;;7.40;99.90;;;;;;5052464;28;20467;-68
2023/12/27 06:58:05;;;;;;;24.30;20.30;;;7.40;99.90;;;;;;5048903;28;20053;-60
2023/12/27 07:00:31;;;;;;;21.83;19.15;;;7.50;99.90;;;;;;5051089;28;20025;-64
2023/12/27 07:02:57;;;;;;;20.08;16.70;;;7.50;99.90;;;;;;5050027;28;20120;-63
2023/12/27 07:05:22;;;;;;;19.50;15.98;;;7.60;99.90;;;;;;5050697;28;20328;-62
2023/12/27 07:07:48;;;;;;;23.13;17.52;;;7.70;99.90;;;;;;5046267;28;20025;-63
2023/12/27 07:10:14;;;;;;;21.85;17.38;;;7.70;99.90;;;;;;5051596;28;20225;-63
2023/12/27 07:12:40;;;;;;;15.95;13.93;;;7.70;99.90;;;;;;5052501;28;20383;-66
2023/12/27 07:15:07;;;;;;;19.83;15.90;;;7.80;99.90;;;;;;5051891;28;20475;-65
2023/12/27 07:17:33;;;;;;;18.63;15.23;;;7.80;99.90;;;;;;5052712;28;20025;-62
2023/12/27 07:20:00;;;;;;;15.65;12.98;;;7.90;99.90;;;;;;5051314;28;20025;-64
2023/12/27 07:22:26;;;;;;;15.77;13.20;;;7.90;99.90;;;;;;5051537;28;20021;-61
2023/12/27 07:24:51;;;;;;;15.52;13.02;;;7.90;99.90;;;;;;5050629;28;20032;-64
2023/12/27 07:27:17;;;;;;;16.38;14.55;;;8.00;99.90;;;;;;5052599;28;20483;-63
2023/12/27 07:29:43;;;;;;;22.92;19.45;;;8.00;99.90;;;;;;5054637;28;20407;-60
2023/12/27 07:32:08;;;;;;;18.35;15.25;;;8.00;99.90;;;;;;5055116;28;20021;-62
2023/12/27 07:34:34;;;;;;;20.38;16.92;;;8.00;99.90;;;;;;5055335;28;20048;-63
2023/12/27 07:37:00;;;;;;;23.40;19.38;;;8.00;99.90;;;;;;5054923;28;20431;-65
2023/12/27 07:39:26;;;;;;;20.85;17.17;;;8.10;99.90;;;;;;5056293;28;20021;-64
2023/12/27 07:41:51;;;;;;;18.38;16.38;;;8.20;99.90;;;;;;5056217;28;20021;-68
2023/12/27 07:44:17;;;;;;;27.20;21.63;;;8.30;99.90;;;;;;5056364;28;20029;-63
2023/12/27 07:46:43;;;;;;;30.10;23.20;;;8.40;99.90;;;;;;5056205;28;20028;-60
2023/12/27 07:49:10;;;;;;;26.52;22.05;;;8.40;99.90;;;;;;5046364;28;20475;-64
2023/12/27 07:51:35;;;;;;;27.35;23.10;;;8.50;99.90;;;;;;5044682;28;20060;-66
2023/12/27 07:54:01;;;;;;;23.55;19.73;;;8.50;99.90;;;;;;5038988;28;20061;-64
2023/12/27 07:56:30;;;;;;;23.25;19.23;;;8.60;99.90;;;;;;5034832;28;20025;-64
2023/12/27 07:58:56;;;;;;;28.20;22.60;;;8.70;99.90;;;;;;5054073;28;20051;-66
2023/12/27 08:01:22;;;;;;;26.58;21.90;;;8.70;99.90;;;;;;5037353;28;20108;-70
2023/12/27 08:03:47;;;;;;;22.55;19.75;;;8.80;99.90;;;;;;5035724;28;20052;-67
2023/12/27 08:06:13;;;;;;;26.83;22.38;;;8.80;99.90;;;;;;5046968;28;20052;-62
2023/12/27 08:08:39;;;;;;;24.08;20.33;;;8.90;99.90;;;;;;5049137;28;20021;-66
2023/12/27 08:11:05;;;;;;;29.65;24.25;;;8.90;99.90;;;;;;5054200;28;20487;-64
2023/12/27 08:13:36;;;;;;;28.40;23.35;;;9.00;99.70;;;;;;5050976;28;20025;-72
2023/12/27 08:16:02;;;;;;;30.08;24.65;;;9.00;99.60;;;;;;5037934;28;20029;-66
2023/12/27 08:18:28;;;;;;;28.65;22.80;;;9.10;99.30;;;;;;5037871;28;20044;-65
2023/12/27 08:20:54;;;;;;;22.40;20.08;;;9.20;99.30;;;;;;5049191;28;20027;-62
2023/12/27 08:23:19;;;;;;;25.77;22.05;;;9.20;99.20;;;;;;5048977;28;20104;-63
2023/12/27 08:25:45;;;;;;;28.60;24.52;;;9.30;98.80;;;;;;5036295;28;20108;-66
2023/12/27 08:28:12;;;;;;;30.40;25.15;;;9.30;98.60;;;;;;5043877;28;20021;-65
2023/12/27 08:30:38;;;;;;;32.25;26.58;;;9.40;99.30;;;;;;5037971;28;20083;-68
2023/12/27 08:33:07;;;;;;;27.38;24.38;;;9.40;99.90;;;;;;5044990;28;20107;-69
2023/12/27 08:35:39;;;;;;;29.30;25.42;;;9.40;99.90;;;;;;5042643;28;20094;-65
2023/12/27 08:38:10;;;;;;;33.78;28.20;;;9.50;99.90;;;;;;5033320;28;20026;-59
2023/12/27 08:40:40;;;;;;;32.25;27.48;;;9.50;99.90;;;;;;5039422;28;20408;-63
2023/12/27 08:43:06;;;;;;;41.88;33.38;;;9.60;99.90;;;;;;5071161;28;20033;-65
2023/12/27 08:45:32;;;;;;;35.40;31.00;;;9.60;99.90;;;;;;5048647;28;20112;-62
2023/12/27 08:47:58;;;;;;;32.05;28.58;;;9.70;99.90;;;;;;5032550;28;20117;-64
2023/12/27 08:50:23;;;;;;;42.83;35.50;;;9.70;99.90;;;;;;5033462;28;20073;-68
2023/12/27 08:52:49;;;;;;;38.08;33.35;;;9.80;99.90;;;;;;5052073;28;20021;-68
2023/12/27 08:55:15;;;;;;;40.67;34.90;;;9.90;99.90;;;;;;5040283;28;20104;-64
2023/12/27 08:57:40;;;;;;;46.50;36.33;;;9.90;99.90;;;;;;5032233;28;20108;-65
2023/12/27 09:00:13;;;;;;;45.03;37.15;;;10.00;99.80;;;;;;5032171;28;20030;-67
2023/12/27 09:02:39;;;;;;;44.08;35.90;;;10.00;99.20;;;;;;5045353;28;20067;-62
2023/12/27 09:05:06;;;;;;;43.50;34.97;;;10.10;99.10;;;;;;5053446;28;20017;-66
2023/12/27 09:07:32;;;;;;;43.25;35.50;;;10.10;99.00;;;;;;5051449;28;20021;-63
2023/12/27 09:09:58;;;;;;;38.00;32.88;;;10.10;98.70;;;;;;5053146;28;20035;-70
2023/12/27 09:12:24;;;;;;;42.05;33.83;;;10.20;98.60;;;;;;5051550;28;20033;-68
2023/12/27 09:14:50;;;;;;;43.47;36.97;;;10.20;98.80;;;;;;5053576;28;20071;-66
2023/12/27 09:17:15;;;;;;;44.67;36.33;;;10.30;98.80;;;;;;5046625;28;20082;-67
2023/12/27 09:19:44;;;;;;;57.17;43.67;;;10.40;98.70;;;;;;5054054;28;20360;-60
2023/12/27 09:22:10;;;;;;;42.95;34.72;;;10.50;98.50;;;;;;5043978;28;20064;-67
2023/12/27 09:24:36;;;;;;;34.33;30.33;;;10.50;99.70;;;;;;5043480;28;20045;-67
2023/12/27 09:27:01;;;;;;;40.97;34.08;;;10.60;99.50;;;;;;5041332;28;20033;-65
2023/12/27 09:29:27;;;;;;;38.50;32.70;;;10.70;98.90;;;;;;5031126;28;20135;-59
2023/12/27 09:31:53;;;;;;;36.08;32.17;;;10.80;99.00;;;;;;5032272;28;20036;-64
2023/12/27 09:34:19;;;;;;;48.47;40.22;;;10.80;99.80;;;;;;5030767;28;20060;-66
2023/12/27 09:36:45;;;;;;;40.42;35.28;;;10.90;98.90;;;;;;5033688;28;20057;-63
2023/12/27 09:39:13;;;;;;;38.78;34.58;;;10.90;99.30;;;;;;5032795;28;20021;-70
2023/12/27 09:41:40;;;;;;;39.35;32.97;;;11.10;99.60;;;;;;5031471;28;20025;-65
2023/12/27 09:44:09;;;;;;;38.35;32.75;;;11.30;99.70;;;;;;5048218;28;20021;-67
2023/12/27 09:46:37;;;;;;;34.47;30.30;;;11.40;98.90;;;;;;5031975;28;20032;-63
2023/12/27 09:49:02;;;;;;;38.22;33.65;;;11.50;98.40;;;;;;5031237;28;20495;-67
2023/12/27 09:51:30;;;;;;;32.53;28.83;;;11.70;98.40;;;;;;5033056;28;20093;-67
2023/12/27 09:53:56;;;;;;;33.97;29.20;;;11.70;98.60;;;;;;5030981;28;20212;-63
2023/12/27 09:56:22;;;;;;;29.90;26.70;;;11.80;98.50;;;;;;5031335;28;20092;-65
2023/12/27 09:58:57;;;;;;;28.33;25.23;;;11.90;97.30;;;;;;5050857;28;20514;-61
2023/12/27 10:01:24;;;;;;;27.05;24.00;;;12.00;98.10;;;;;;5051812;28;20406;-62
2023/12/27 10:03:58;;;;;;;26.45;23.33;;;12.10;97.90;;;;;;5051836;28;20021;-71
2023/12/27 10:06:41;;;;;;;25.90;23.10;;;12.10;97.10;;;;;;5049807;28;20021;-66
2023/12/27 10:09:11;;;;;;;25.15;22.42;;;12.30;96.80;;;;;;5052865;28;20021;-68
2023/12/27 10:11:42;;;;;;;23.85;21.48;;;12.40;95.50;;;;;;5053863;28;20347;-66
2023/12/27 10:14:09;;;;;;;25.33;22.63;;;12.40;95.00;;;;;;5052948;28;20555;-59
2023/12/27 10:16:36;;;;;;;22.52;20.30;;;12.50;95.80;;;;;;5053342;28;20028;-67
2023/12/27 10:19:04;;;;;;;24.85;22.13;;;12.50;95.00;;;;;;5052311;28;20451;-73
2023/12/27 10:21:52;;;;;;;21.75;19.58;;;12.70;93.80;;;;;;5052451;28;20032;-72
2023/12/27 10:24:17;;;;;;;24.13;21.65;;;12.80;93.20;;;;;;5049245;28;20098;-65
2023/12/27 10:26:43;;;;;;;27.83;23.92;;;12.90;91.60;;;;;;5051392;28;20033;-64
2023/12/27 10:29:09;;;;;;;30.25;25.83;;;13.00;91.00;;;;;;5053890;28;20116;-61
2023/12/27 10:31:36;;;;;;;27.85;24.85;;;13.20;91.40;;;;;;5040436;28;20375;-60
2023/12/27 10:34:03;;;;;;;26.90;24.02;;;13.50;91.00;;;;;;5037400;28;20033;-62
2023/12/27 10:36:38;;;;;;;25.40;22.80;;;13.70;92.10;;;;;;5042381;28;20071;-63
2023/12/27 10:39:05;;;;;;;24.75;22.27;;;14.00;89.70;;;;;;5061569;28;20036;-65
2023/12/27 10:41:43;;;;;;;25.05;22.55;;;14.30;85.80;;;;;;5060913;28;20382;-65
2023/12/27 10:44:18;;;;;;;27.75;24.85;;;14.70;78.80;;;;;;5048698;28;20139;-62
2023/12/27 10:46:44;;;;;;;27.63;24.83;;;15.00;72.50;;;;;;5039537;28;20032;-63
2023/12/27 10:49:15;;;;;;;29.95;26.83;;;15.20;69.00;;;;;;5034728;28;20048;-63
2023/12/27 10:51:42;;;;;;;29.13;26.10;;;15.30;66.60;;;;;;5036923;28;20084;-62
2023/12/27 10:54:10;;;;;;;28.58;25.65;;;15.30;64.80;;;;;;5036974;28;20070;-65
2023/12/27 10:56:38;;;;;;;30.00;26.80;;;15.30;65.00;;;;;;5038132;28;20049;-65
2023/12/27 10:59:08;;;;;;;27.45;24.65;;;15.30;65.20;;;;;;5039716;28;20348;-64
2023/12/27 11:01:45;;;;;;;32.90;29.45;;;15.30;65.20;;;;;;5042408;28;20047;-64
2023/12/27 11:04:12;;;;;;;37.20;32.10;;;15.40;64.70;;;;;;5042875;28;20026;-64
2023/12/27 11:06:39;;;;;;;32.08;28.73;;;15.40;65.80;;;;;;5042687;28;20055;-67
2023/12/27 11:09:07;;;;;;;32.55;28.10;;;15.40;64.90;;;;;;5043458;28;20484;-66
2023/12/27 11:11:39;;;;;;;27.60;24.80;;;15.40;66.20;;;;;;5043682;28;20024;-64
2023/12/27 11:14:15;;;;;;;27.10;24.42;;;15.30;67.60;;;;;;5042285;28;20527;-63
2023/12/27 11:16:42;;;;;;;28.77;25.80;;;15.40;67.80;;;;;;5042023;28;20548;-66
2023/12/27 11:19:08;;;;;;;27.80;25.00;;;15.50;69.20;;;;;;5046859;28;20071;-60
2023/12/27 11:21:34;;;;;;;25.65;22.95;;;15.50;68.40;;;;;;5038021;28;20053;-67
2023/12/27 11:24:00;;;;;;;26.85;24.15;;;15.50;66.80;;;;;;5036127;28;20044;-61
2023/12/27 11:26:27;;;;;;;28.13;25.30;;;15.60;65.20;;;;;;5036448;28;20477;-65
2023/12/27 11:28:53;;;;;;;29.48;26.17;;;15.60;63.90;;;;;;5034606;28;20036;-61
2023/12/27 11:31:19;;;;;;;28.05;25.13;;;15.70;64.70;;;;;;5046250;28;20033;-68
2023/12/27 11:33:46;;;;;;;24.98;22.58;;;15.80;67.50;;;;;;5053427;28;20418;-65
2023/12/27 11:36:12;;;;;;;25.00;22.40;;;16.00;65.00;;;;;;5051729;28;20021;-64
2023/12/27 11:38:40;;;;;;;23.15;21.00;;;16.20;63.20;;;;;;5054248;28;20380;-64
2023/12/27 11:41:06;;;;;;;23.85;21.60;;;16.30;61.80;;;;;;5052366;28;20033;-61
2023/12/27 11:43:52;;;;;;;27.67;24.98;;;16.50;60.60;;;;;;5053667;28;20044;-66
2023/12/27 11:46:28;;;;;;;27.80;25.10;;;16.50;61.70;;;;;;5053493;28;20316;-67
2023/12/27 11:48:54;;;;;;;26.67;23.98;;;16.60;59.80;;;;;;5055372;28;20124;-69
2023/12/27 11:51:34;;;;;;;28.80;25.95;;;16.80;58.80;;;;;;5055171;28;20021;-66
2023/12/27 11:54:00;;;;;;;25.45;23.00;;;16.90;58.70;;;;;;5053714;28;20035;-68
2023/12/27 11:56:31;;;;;;;28.75;25.67;;;17.00;58.60;;;;;;5046448;28;20480;-65
2023/12/27 11:59:05;;;;;;;26.35;23.85;;;17.10;57.90;;;;;;5047724;28;20047;-63
2023/12/27 12:01:35;;;;;;;27.20;24.58;;;17.20;56.70;;;;;;5042072;28;20025;-69
2023/12/27 12:04:35;;;;;;;26.00;23.45;;;17.40;56.20;;;;;;5053093;28;20048;-68
2023/12/27 12:07:13;;;;;;;28.17;25.17;;;17.50;55.90;;;;;;5036690;28;20152;-67
2023/12/27 12:09:44;;;;;;;25.42;22.85;;;17.50;55.40;;;;;;5034402;28;20087;-61
2023/12/27 12:12:22;;;;;;;25.60;23.10;;;17.50;55.60;;;;;;5034230;28;20390;-64
2023/12/27 12:14:52;;;;;;;24.35;21.85;;;17.50;55.70;;;;;;5035590;28;20026;-67
2023/12/27 12:17:19;;;;;;;23.30;21.13;;;17.50;56.30;;;;;;5033688;28;20064;-65
2023/12/27 12:19:48;;;;;;;22.55;20.45;;;17.70;54.20;;;;;;5033005;28;20022;-67
2023/12/27 12:22:16;;;;;;;21.48;19.33;;;17.80;56.30;;;;;;5032819;28;20022;-63
2023/12/27 12:24:45;;;;;;;24.48;20.70;;;17.80;55.40;;;;;;5032327;28;20054;-66
2023/12/27 12:27:22;;;;;;;21.63;19.52;;;17.90;54.70;;;;;;5033225;28;20026;-64
2023/12/27 12:29:48;;;;;;;19.85;17.98;;;17.90;54.80;;;;;;5033676;28;20120;-66
2023/12/27 12:32:14;;;;;;;23.08;20.58;;;18.00;54.40;;;;;;5034359;28;20025;-63